createdAt,value
2023-02-03T02:04:15.683Z,0.90
2023-02-03T02:06:48.218Z,0.93
2023-02-03T02:09:16.504Z,0.88
2023-02-03T02:11:45.927Z,0.87
2023-02-03T02:14:14.191Z,0.96
2023-02-03T02:16:51.579Z,1.06
2023-02-03T02:19:47.284Z,1.13
2023-02-03T02:22:20.922Z,1.15
2023-02-03T02:25:07.795Z,1.12
2023-02-03T02:27:47.319Z,1.03
2023-02-03T02:30:33.989Z,0.98
2023-02-03T02:33:18.707Z,0.89
2023-02-03T02:36:08.971Z,0.83
2023-02-03T02:39:10.004Z,0.85
2023-02-03T02:42:18.290Z,0.76
2023-02-03T02:44:50.256Z,0.72
2023-02-03T02:47:22.571Z,0.66
2023-02-03T02:49:57.047Z,0.60
2023-02-03T02:52:25.195Z,0.60
2023-02-03T02:54:54.836Z,0.51
2023-02-03T02:57:24.358Z,0.48
2023-02-03T02:59:53.655Z,0.47
2023-02-03T03:02:27.358Z,0.47
2023-02-03T03:04:56.054Z,0.48
2023-02-03T03:07:24.843Z,0.54
2023-02-03T03:10:05.558Z,0.55
2023-02-03T03:12:38.343Z,0.56
2023-02-03T03:15:11.939Z,0.55
2023-02-03T03:17:51.965Z,0.47
2023-02-03T03:20:22.999Z,0.40
2023-02-03T03:23:03.755Z,0.31
2023-02-03T03:25:36.695Z,0.29
2023-02-03T03:28:08.924Z,0.27
2023-02-03T03:30:37.641Z,0.24
2023-02-03T03:33:06.506Z,0.27
2023-02-03T03:35:50.669Z,0.26
2023-02-03T03:38:43.582Z,0.25
2023-02-03T03:41:37.055Z,0.15
2023-02-03T03:44:06.056Z,0.06
2023-02-03T03:46:40.207Z,0.02
2023-02-03T03:49:09.760Z,0.04
2023-02-03T03:51:47.450Z,0.03
2023-02-03T03:54:17.269Z,0.03
2023-02-03T03:56:58.462Z,0.02
2023-02-03T03:59:28.793Z,0.06
2023-02-03T04:01:57.018Z,0.11
2023-02-03T04:04:25.308Z,0.08
2023-02-03T04:06:54.988Z,0.09
2023-02-03T04:09:23.120Z,0.06
2023-02-03T04:12:03.707Z,0.02
2023-02-03T04:14:38.914Z,0.00
2023-02-03T04:17:07.201Z,0.02
2023-02-03T04:19:35.565Z,0.09
2023-02-03T04:22:04.580Z,0.10
2023-02-03T04:24:33.472Z,0.15
2023-02-03T04:27:03.719Z,0.21
2023-02-03T04:29:34.856Z,0.28
2023-02-03T04:32:03.494Z,0.27
2023-02-03T04:34:32.207Z,0.19
2023-02-03T04:37:00.397Z,0.14
2023-02-03T04:39:28.785Z,0.16
2023-02-03T04:41:57.870Z,0.14
2023-02-03T04:44:26.499Z,0.12
2023-02-03T04:46:54.631Z,0.14
2023-02-03T04:49:22.970Z,0.14
2023-02-03T04:51:51.624Z,0.14
2023-02-03T04:54:19.663Z,0.11
2023-02-03T04:56:47.771Z,0.07
2023-02-03T04:59:15.873Z,0.06
2023-02-03T05:01:44.551Z,0.01
2023-02-03T05:04:12.727Z,-0.15
2023-02-03T05:06:43.458Z,-0.19
2023-02-03T05:09:11.634Z,-0.19
2023-02-03T05:11:40.221Z,-0.20
2023-02-03T05:14:08.413Z,-0.24
2023-02-03T05:16:36.659Z,-0.24
2023-02-03T05:19:05.773Z,-0.22
2023-02-03T05:21:33.960Z,-0.24
2023-02-03T05:24:03.989Z,-0.22
2023-02-03T05:26:32.264Z,-0.18
2023-02-03T05:29:01.111Z,-0.16
2023-02-03T05:31:29.566Z,-0.12
2023-02-03T05:33:58.248Z,-0.12
2023-02-03T05:36:26.612Z,-0.08
2023-02-03T05:38:54.896Z,0.02
2023-02-03T05:41:41.695Z,0.07
2023-02-03T05:44:10.191Z,0.12
2023-02-03T05:46:38.455Z,0.20
2023-02-03T05:49:06.847Z,0.27
2023-02-03T05:51:35.108Z,0.31
2023-02-03T05:54:03.408Z,0.30
2023-02-03T05:56:31.877Z,0.35
2023-02-03T05:59:00.073Z,0.37
2023-02-03T06:01:29.182Z,0.38
2023-02-03T06:03:57.600Z,0.40
2023-02-03T06:06:27.367Z,0.39
2023-02-03T06:08:57.392Z,0.36
2023-02-03T06:11:27.109Z,0.33
2023-02-03T06:13:58.737Z,0.31
2023-02-03T06:16:27.401Z,0.30
2023-02-03T06:18:59.747Z,0.28
